To NAV CANADA Home Page Login to a new session Search on AWWS site Feedback and Comments Disclaimer Vers la page française équivalente Tips FAQ What's new on the site To the Forecasts and Observations / NOTAM section To "File a Flight Plan" website Publications and other links Update of the User's profile FIC Telephone Numbers My Weather Data Folder Route Weather Data Regional Weather Data Local Weather Data To the Forecasts and Observations / NOTAM section
Request Generated 05/28/2015 at 19:45:49 UTC . Weather information available at that time is displayed.

METAR/TAF

CARTWRIGHT/NL    

METAR CWCA 281900Z 01007KT 15SM OVC020 05/02 A2983 RMK SC8 SLP102=
METAR CWCA 281800Z 05006KT 020V080 15SM OVC020 05/03 A2980 RMK SC8
SLP091=
SPECI CWCA 281716Z 36011G16KT 12SM FEW007 OVC020 03/02 A2976 RMK
ST2SC6 PRESRR SLP079=
METAR CWCA 281700Z 36014KT 4SM -RA SCT007 OVC020 03/02 A2975 RMK
ST4SC4 SLP073=

TAF CYCA 281938Z 2820/2908 ADVISORY OFFSITE 01010KT P6SM OVC020 TEMPO
2820/2821 BKN025
FM282100 34007KT P6SM SCT025 TEMPO 2823/2906 BKN020
BECMG 2904/2906 29012KT
RMK NXT FCST BY 290200Z=
Your time UTC time
Weather data provided by Environment Canada and NAV CANADA